Time;durP1;ratioP1;P1;durP2;ratioP2;P2;SDS_P1;SDS_P2;PMS_P1;PMS_P2;Temp;Humidity;BMP_temperature;BMP_pressure;BME280_temperature;BME280_humidity;BME280_pressure;Samples;Min_cycle;Max_cycle;Signal;HPM_P1;HPM_P2
2023/01/04 00:00:07;;;;;;;5.18;2.78;;;;;;;18.35;47.97;101788.47;5024580;28;20041;-54
2023/01/04 00:02:32;;;;;;;5.47;2.88;;;;;;;18.34;48.12;101787.63;5021822;28;20022;-53
2023/01/04 00:04:58;;;;;;;7.90;3.45;;;;;;;18.33;47.93;101777.88;5027549;28;20032;-53
2023/01/04 00:07:23;;;;;;;5.15;2.97;;;;;;;18.33;48.10;101779.72;5027998;28;20102;-56
2023/01/04 00:09:48;;;;;;;6.15;3.30;;;;;;;18.33;48.19;101774.34;5027815;28;20049;-56
2023/01/04 00:12:13;;;;;;;4.30;2.47;;;;;;;18.31;47.92;101760.16;5027940;28;20089;-52
2023/01/04 00:14:39;;;;;;;4.18;2.60;;;;;;;18.32;48.13;101776.19;5010069;28;20041;-54
2023/01/04 00:17:04;;;;;;;4.50;2.60;;;;;;;18.31;47.91;101760.16;5027885;28;20042;-55
2023/01/04 00:19:29;;;;;;;5.75;2.83;;;;;;;18.30;48.02;101751.22;5027683;28;20030;-53
2023/01/04 00:21:54;;;;;;;5.05;2.70;;;;;;;18.29;47.89;101746.00;5027527;28;20036;-55
2023/01/04 00:24:20;;;;;;;5.97;3.17;;;;;;;18.29;48.13;101737.91;5009310;28;20038;-56
2023/01/04 00:26:45;;;;;;;5.57;2.83;;;;;;;18.28;48.30;101725.47;5027486;28;20056;-54
2023/01/04 00:29:12;;;;;;;4.03;2.63;;;;;;;18.28;48.08;101725.47;5027587;28;20033;-53
2023/01/04 00:31:38;;;;;;;4.63;2.78;;;;;;;18.26;47.91;101724.75;5027588;28;20022;-56
2023/01/04 00:34:04;;;;;;;4.40;3.00;;;;;;;18.27;48.31;101721.94;5027133;28;20489;-54
2023/01/04 00:36:30;;;;;;;6.22;3.10;;;;;;;18.24;47.98;101709.59;5027151;28;20113;-55
2023/01/04 00:39:06;;;;;;;6.10;3.05;;;;;;;18.25;47.95;101713.13;5027486;28;20029;-56
2023/01/04 00:41:36;;;;;;;6.00;2.88;;;;;;;18.24;48.11;101709.59;5027154;28;20057;-54
2023/01/04 00:44:03;;;;;;;4.80;2.80;;;;;;;18.24;47.93;101704.22;5027416;28;20029;-55
2023/01/04 00:46:28;;;;;;;4.50;2.38;;;;;;;18.21;47.78;101690.19;5027411;28;20026;-55
2023/01/04 00:48:54;;;;;;;3.83;2.40;;;;;;;18.23;47.93;101690.91;5027264;28;20025;-56
2023/01/04 00:51:19;;;;;;;4.05;2.33;;;;;;;18.21;47.94;101687.50;5026830;28;20018;-53
2023/01/04 00:53:44;;;;;;;5.70;2.60;;;;;;;18.19;47.73;101684.97;5026791;28;20042;-57
2023/01/04 00:56:09;;;;;;;5.80;2.88;;;;;;;18.21;47.87;101672.19;5026930;28;20065;-53
2023/01/04 00:58:35;;;;;;;5.88;2.67;;;;;;;18.20;48.13;101672.34;5027187;28;20025;-54
2023/01/04 01:01:04;;;;;;;5.65;3.05;;;;;;;18.20;47.89;101669.66;5026916;28;20021;-56
2023/01/04 01:03:30;;;;;;;3.58;2.40;;;;;;;18.20;47.80;101661.59;5026909;28;20462;-54
2023/01/04 01:06:00;;;;;;;5.05;2.65;;;;;;;18.18;47.96;101653.66;5026314;28;20032;-55
2023/01/04 01:08:25;;;;;;;4.57;2.30;;;;;;;18.18;48.21;101642.91;5026849;28;20030;-55
2023/01/04 01:10:52;;;;;;;4.43;2.58;;;;;;;18.18;48.15;101628.56;5007185;28;20054;-55
2023/01/04 01:13:18;;;;;;;3.38;2.35;;;;;;;18.17;48.09;101626.88;5007007;28;20030;-56
2023/01/04 01:15:43;;;;;;;3.70;2.60;;;;;;;18.16;47.78;101609.03;5006959;28;20042;-54
2023/01/04 01:18:09;;;;;;;5.95;2.10;;;;;;;18.09;47.87;101589.91;5006893;28;20038;-53
2023/01/04 01:20:34;;;;;;;4.18;2.10;;;;;;;18.16;47.83;101606.34;5006841;28;20041;-52
2023/01/04 01:22:59;;;;;;;4.15;2.10;;;;;;;18.14;47.78;101593.03;5014318;28;20501;-55
2023/01/04 01:25:24;;;;;;;4.32;2.47;;;;;;;18.14;47.99;101602.97;5026405;28;20088;-56
2023/01/04 01:27:50;;;;;;;3.80;2.28;;;;;;;18.13;48.10;101595.88;5026532;28;20025;-55
2023/01/04 01:30:15;;;;;;;3.17;1.85;;;;;;;18.12;48.15;101589.63;5026416;28;20070;-51
2023/01/04 01:32:40;;;;;;;3.58;2.17;;;;;;;18.11;47.86;101585.25;5026328;28;20042;-52
2023/01/04 01:35:06;;;;;;;2.88;1.80;;;;;;;18.11;47.87;101582.56;5025854;28;20364;-55
2023/01/04 01:37:31;;;;;;;3.10;2.00;;;;;;;18.10;48.14;101570.13;5025335;28;20038;-56
2023/01/04 01:39:56;;;;;;;4.82;2.40;;;;;;;18.10;48.10;101574.66;5026283;28;20041;-51
2023/01/04 01:42:22;;;;;;;3.42;2.00;;;;;;;18.09;47.91;101564.84;5026211;28;20030;-54
2023/01/04 01:44:58;;;;;;;3.67;1.95;;;;;;;18.08;48.29;101552.41;5026183;28;20506;-55
2023/01/04 01:47:39;;;;;;;3.78;2.13;;;;;;;18.08;47.93;101553.25;5026444;28;20025;-55
2023/01/04 01:50:08;;;;;;;3.85;1.88;;;;;;;18.07;47.97;101535.41;5008191;28;20026;-57
2023/01/04 01:52:36;;;;;;;3.97;2.10;;;;;;;18.06;48.21;101531.03;5007942;28;20022;-54
2023/01/04 01:55:05;;;;;;;3.63;2.17;;;;;;;18.07;47.93;101531.88;5008650;28;20029;-55
2023/01/04 01:57:32;;;;;;;5.75;2.30;;;;;;;18.04;48.21;101551.00;5025946;28;20517;-54
2023/01/04 02:00:03;;;;;;;3.63;2.30;;;;;;;18.01;48.05;101521.69;5025716;28;20037;-54
2023/01/04 02:02:28;;;;;;;4.50;2.15;;;;;;;18.03;47.92;101531.31;5025893;28;20037;-55
2023/01/04 02:04:54;;;;;;;2.58;1.73;;;;;;;18.04;47.96;101548.31;5025553;28;20033;-56
2023/01/04 02:07:22;;;;;;;3.47;1.90;;;;;;;18.03;47.96;101536.72;5025640;28;20049;-54
2023/01/04 02:09:48;;;;;;;2.13;1.55;;;;;;;18.03;48.08;101522.41;5025784;28;20025;-53
2023/01/04 02:12:14;;;;;;;2.63;1.85;;;;;;;18.02;47.97;101518.88;5025519;28;20064;-56
2023/01/04 02:14:43;;;;;;;2.58;1.63;;;;;;;18.01;48.11;101524.38;5025475;28;20054;-53
2023/01/04 02:17:11;;;;;;;4.60;2.08;;;;;;;18.02;48.04;101531.47;5025583;28;20025;-56
2023/01/04 02:19:52;;;;;;;4.72;2.30;;;;;;;18.01;48.04;101478.66;5007918;28;20062;-51
2023/01/04 02:22:44;;;;;;;2.22;1.60;;;;;;;18.01;48.16;101505.56;5025169;28;20028;-54
2023/01/04 02:25:10;;;;;;;3.55;2.20;;;;;;;17.99;48.00;101506.56;5025433;28;20041;-54
2023/01/04 02:28:00;;;;;;;2.83;1.70;;;;;;;17.97;48.14;101497.78;5025097;28;20034;-52
2023/01/04 02:30:43;;;;;;;2.15;1.75;;;;;;;17.98;48.04;101501.31;5025487;28;20026;-49
2023/01/04 02:33:26;;;;;;;3.50;1.90;;;;;;;17.98;48.04;101477.13;5025332;28;20025;-52
2023/01/04 02:36:32;;;;;;;3.17;1.95;;;;;;;17.97;47.99;101472.75;5024679;28;20160;-56
2023/01/04 02:39:23;;;;;;;3.08;2.25;;;;;;;17.96;48.01;101466.47;4991066;28;20136;-52
2023/01/04 02:41:58;;;;;;;3.22;1.95;;;;;;;17.96;48.23;101471.03;5007634;28;20038;-54
2023/01/04 02:47:16;;;;;;;3.35;1.85;;;;;;;17.93;48.00;101477.56;4990762;28;20048;-55
2023/01/04 02:52:26;;;;;;;2.05;1.58;;;;;;;17.94;48.09;101446.13;5025152;28;20060;-55
2023/01/04 02:54:54;;;;;;;2.65;1.70;;;;;;;17.92;48.08;101440.88;5007735;28;20085;-54
2023/01/04 02:57:29;;;;;;;2.53;1.63;;;;;;;17.92;48.25;101451.63;5007543;28;20037;-55
2023/01/04 03:00:29;;;;;;;3.10;1.75;;;;;;;17.93;48.31;101456.03;4991204;28;20106;-54
2023/01/04 03:06:16;;;;;;;3.58;1.75;;;;;;;17.91;48.23;101441.88;5024611;28;20045;-56
2023/01/04 03:08:55;;;;;;;2.10;1.42;;;;;;;17.90;48.18;101444.72;5024927;28;20028;-54
2023/01/04 03:14:15;;;;;;;2.28;1.45;;;;;;;17.89;48.36;101418.81;5010146;28;20096;-54
2023/01/04 03:16:42;;;;;;;2.30;1.52;;;;;;;17.84;48.29;101411.22;5007145;28;20061;-54
2023/01/04 03:19:09;;;;;;;2.38;1.45;;;;;;;17.83;48.37;101411.34;5007264;28;20040;-56
2023/01/04 03:21:36;;;;;;;3.58;1.80;;;;;;;17.89;47.99;101418.81;5006887;28;20045;-55
2023/01/04 03:35:23;;;;;;;;;;;;;;;17.87;48.13;101408.19;5009658;28;20041;-55
2023/01/04 03:43:08;;;;;;;2.30;1.60;;;;;;;17.81;48.15;101389.13;5008288;28;20000;-48
2023/01/04 03:49:32;;;;;;;2.55;1.60;;;;;;;17.83;48.16;101404.09;5009640;28;20076;-57
2023/01/04 03:52:01;;;;;;;2.10;1.40;;;;;;;17.82;48.17;101413.19;5006825;28;20107;-56
2023/01/04 03:54:30;;;;;;;1.73;1.40;;;;;;;17.82;48.55;101396.19;5024621;28;20029;-55
2023/01/04 03:56:56;;;;;;;1.52;1.27;;;;;;;17.82;48.18;101398.88;5024413;28;20041;-54
2023/01/04 03:59:22;;;;;;;2.00;1.58;;;;;;;17.83;48.38;101397.88;5007760;28;20034;-54
2023/01/04 04:01:48;;;;;;;1.88;1.30;;;;;;;17.82;48.22;101405.13;5027875;28;20022;-57
2023/01/04 04:09:41;;;;;;;2.60;1.50;;;;;;;17.77;48.44;101379.69;5027847;28;20112;-56
2023/01/04 04:12:07;;;;;;;2.92;1.30;;;;;;;17.81;48.16;101398.06;5027806;28;20027;-56
2023/01/04 04:14:32;;;;;;;2.47;1.50;;;;;;;17.81;48.54;101381.91;5027500;28;20105;-56
2023/01/04 04:16:57;;;;;;;2.58;1.83;;;;;;;17.82;48.32;101388.13;5027921;28;20086;-53
2023/01/04 04:19:23;;;;;;;1.23;1.10;;;;;;;17.79;48.46;101377.66;5027744;28;20038;-54
2023/01/04 04:21:48;;;;;;;2.20;1.70;;;;;;;17.81;48.26;101381.91;5027420;28;20112;-54
2023/01/04 04:24:19;;;;;;;1.40;1.17;;;;;;;17.81;48.21;101367.63;5027740;28;20053;-54
2023/01/04 04:26:44;;;;;;;1.15;1.05;;;;;;;17.82;48.52;101374.69;5027726;28;20037;-54
2023/01/04 04:29:10;;;;;;;1.77;1.50;;;;;;;17.81;48.30;101363.09;5027726;28;20592;-54
2023/01/04 04:31:35;;;;;;;1.60;1.15;;;;;;;17.81;48.54;101365.78;5027536;28;20080;-51
2023/01/04 04:34:00;;;;;;;2.05;1.02;;;;;;;17.78;48.45;101349.94;5018591;28;20030;-55
2023/01/04 04:36:25;;;;;;;1.98;1.17;;;;;;;17.81;48.06;101363.09;5018887;28;20184;-51
2023/01/04 04:38:51;;;;;;;1.55;1.13;;;;;;;17.80;48.53;101358.72;5009507;28;20093;-53
2023/01/04 04:44:00;;;;;;;1.15;1.00;;;;;;;17.80;48.29;101356.00;5027019;28;20029;-57
2023/01/04 04:46:25;;;;;;;2.47;1.10;;;;;;;17.78;48.24;101365.22;5027258;28;20030;-55
2023/01/04 04:48:51;;;;;;;1.40;1.00;;;;;;;17.80;48.53;101352.44;5027179;28;20090;-54
2023/01/04 04:51:16;;;;;;;1.08;0.95;;;;;;;17.79;48.37;101357.00;5027062;28;20478;-57
2023/01/04 04:53:42;;;;;;;1.80;1.33;;;;;;;17.80;48.24;101353.31;5026837;28;20026;-53
2023/01/04 04:56:07;;;;;;;1.15;1.00;;;;;;;17.80;48.59;101345.25;5026742;28;20029;-55
2023/01/04 04:58:33;;;;;;;2.10;1.15;;;;;;;17.80;48.55;101344.38;5026826;28;20060;-53
2023/01/04 05:00:58;;;;;;;1.95;1.00;;;;;;;17.80;48.57;101337.19;5026957;28;20065;-53
2023/01/04 05:03:24;;;;;;;1.83;1.17;;;;;;;17.80;48.62;101334.50;5026538;28;20057;-54
2023/01/04 05:05:49;;;;;;;1.60;1.00;;;;;;;17.80;48.62;101326.44;5026163;28;20032;-55
2023/01/04 05:08:14;;;;;;;1.23;1.00;;;;;;;17.81;48.48;101338.03;5008898;28;20335;-55
2023/01/04 05:10:39;;;;;;;1.23;1.10;;;;;;;17.80;48.45;101326.44;5026880;28;20096;-55
2023/01/04 05:13:07;;;;;;;1.63;1.20;;;;;;;17.81;48.73;101324.59;5026269;28;20088;-56
2023/01/04 05:15:36;;;;;;;1.40;1.00;;;;;;;17.81;48.41;101324.59;5026426;28;20604;-57
2023/01/04 05:18:01;;;;;;;1.77;0.97;;;;;;;17.78;48.46;101314.97;5026621;28;20026;-55
2023/01/04 05:20:27;;;;;;;1.67;1.10;;;;;;;17.81;48.49;101316.50;5026621;28;20275;-55
2023/01/04 05:22:52;;;;;;;1.73;1.20;;;;;;;17.81;48.55;101314.66;5026032;28;20033;-56
2023/01/04 05:25:17;;;;;;;1.98;1.00;;;;;;;17.81;48.77;101319.22;5026475;28;20038;-53
2023/01/04 05:27:43;;;;;;;1.50;1.40;;;;;;;17.82;48.51;101307.44;5026150;28;20037;-54
2023/01/04 05:32:54;;;;;;;1.27;0.82;;;;;;;17.83;48.67;101303.75;5026243;28;20040;-56
2023/01/04 05:35:19;;;;;;;1.42;1.05;;;;;;;17.79;48.65;101300.50;5025756;28;20026;-56
2023/01/04 05:37:45;;;;;;;0.95;0.90;;;;;;;17.83;48.74;101298.38;5025909;28;20041;-53
2023/01/04 05:40:10;;;;;;;1.10;0.90;;;;;;;17.84;48.61;101295.53;5026167;28;20065;-55
2023/01/04 05:42:35;;;;;;;1.45;1.08;;;;;;;17.84;48.95;101300.06;5025541;28;20029;-54
2023/01/04 05:45:00;;;;;;;0.85;0.80;;;;;;;17.85;48.69;101299.91;5025943;28;20060;-50
2023/01/04 05:47:27;;;;;;;1.05;0.93;;;;;;;17.86;48.55;101285.47;5026071;28;20021;-55
2023/01/04 05:49:52;;;;;;;1.55;0.90;;;;;;;17.87;48.85;101275.53;5025861;28;20030;-58
2023/01/04 05:52:18;;;;;;;2.15;1.00;;;;;;;17.87;48.67;101270.16;5024879;28;20075;-54
2023/01/04 05:54:43;;;;;;;1.52;1.05;;;;;;;17.88;48.91;101271.84;5024827;28;20320;-57
2023/01/04 05:57:09;;;;;;;1.00;0.85;;;;;;;17.85;49.22;101258.72;5025290;28;20045;-57
2023/01/04 05:59:34;;;;;;;1.52;0.98;;;;;;;17.91;49.30;101261.63;5025050;28;20026;-54
2023/01/04 06:02:00;;;;;;;3.30;1.10;;;;;;;17.91;49.55;101250.88;5024897;28;20026;-57
2023/01/04 06:04:25;;;;;;;1.00;0.90;;;;;;;17.95;49.22;101254.09;5024413;28;20125;-55
2023/01/04 06:06:51;;;;;;;1.33;0.93;;;;;;;17.93;49.52;101253.44;5024174;28;20033;-55
2023/01/04 06:09:16;;;;;;;2.00;0.80;;;;;;;17.97;49.30;101242.22;5023080;28;20117;-56
2023/01/04 06:11:41;;;;;;;1.25;1.00;;;;;;;17.98;49.58;101245.75;5025185;28;20084;-56
2023/01/04 06:14:07;;;;;;;1.08;0.98;;;;;;;17.98;49.32;101241.19;5024821;28;20111;-56
2023/01/04 06:16:32;;;;;;;0.80;0.80;;;;;;;18.00;49.45;101241.03;5025048;28;20022;-52
2023/01/04 06:18:57;;;;;;;0.98;0.80;;;;;;;18.01;49.62;101241.88;5024608;28;20034;-54
2023/01/04 06:21:24;;;;;;;0.75;0.75;;;;;;;18.01;49.76;101234.69;5024942;28;20053;-56
2023/01/04 06:23:50;;;;;;;1.23;0.90;;;;;;;18.01;49.44;101242.75;5024521;28;20018;-53
2023/01/04 06:26:15;;;;;;;1.17;1.08;;;;;;;18.04;49.57;101246.97;5024680;28;20025;-53
2023/01/04 06:28:40;;;;;;;0.90;0.85;;;;;;;18.05;49.64;101251.31;5024368;28;20048;-54
2023/01/04 06:31:07;;;;;;;1.38;0.90;;;;;;;18.06;49.98;101253.88;5024930;28;20466;-55
2023/01/04 06:33:33;;;;;;;1.15;0.80;;;;;;;18.06;49.67;101229.66;5024277;28;20036;-51
2023/01/04 06:35:58;;;;;;;0.80;0.80;;;;;;;18.07;49.75;101174.84;5024251;28;20045;-56
2023/01/04 06:38:23;;;;;;;1.33;0.80;;;;;;;18.07;49.74;101204.44;5024355;28;20044;-56
2023/01/04 06:40:49;;;;;;;0.98;0.70;;;;;;;18.09;49.86;101218.56;5024316;28;20025;-52
2023/01/04 06:43:14;;;;;;;0.80;0.80;;;;;;;18.10;50.08;101232.91;5024327;28;20029;-55
2023/01/04 06:45:41;;;;;;;0.77;0.77;;;;;;;18.10;49.82;101252.56;5024756;28;20022;-57
2023/01/04 06:48:06;;;;;;;1.25;0.90;;;;;;;18.09;49.91;101248.16;5024292;28;20022;-56
2023/01/04 06:50:31;;;;;;;1.55;0.70;;;;;;;18.14;49.97;101245.03;5024559;28;20025;-54
2023/01/04 06:52:56;;;;;;;1.00;0.80;;;;;;;18.09;49.85;101229.34;5024070;28;20056;-54
2023/01/04 06:55:22;;;;;;;17.20;1.13;;;;;;;18.14;50.07;101227.06;5024854;28;20030;-56
2023/01/04 06:57:47;;;;;;;0.70;0.70;;;;;;;18.15;50.02;101242.19;5023886;28;20018;-53
2023/01/04 07:00:13;;;;;;;1.70;0.90;;;;;;;18.15;49.87;101239.50;5024482;28;20108;-56
2023/01/04 07:02:38;;;;;;;0.93;0.70;;;;;;;18.16;50.13;101235.78;5024568;28;20029;-56
2023/01/04 07:05:04;;;;;;;0.80;0.77;;;;;;;18.16;49.89;101226.88;5023967;28;20037;-54
2023/01/04 07:07:31;;;;;;;2.30;0.90;;;;;;;18.17;50.19;101240.16;5024236;28;20030;-52
2023/01/04 07:09:56;;;;;;;0.70;0.70;;;;;;;18.18;50.06;101235.63;5024171;28;20025;-51
2023/01/04 07:12:21;;;;;;;1.45;0.90;;;;;;;18.14;50.20;101221.66;5021486;28;20052;-54
2023/01/04 07:14:46;;;;;;;0.73;0.73;;;;;;;18.19;50.28;101222.03;5024227;28;20033;-52
2023/01/04 07:17:12;;;;;;;0.88;0.70;;;;;;;18.19;49.93;101230.09;5024354;28;20085;-52
2023/01/04 07:19:37;;;;;;;1.00;0.73;;;;;;;18.21;50.02;101219.19;5024026;28;20363;-54
2023/01/04 07:22:02;;;;;;;0.82;0.70;;;;;;;18.21;50.04;101221.88;5006404;28;20024;-52
2023/01/04 07:24:28;;;;;;;0.75;0.70;;;;;;;18.23;50.34;101217.19;5024055;28;20030;-53
2023/01/04 07:26:53;;;;;;;1.10;0.70;;;;;;;18.21;50.23;101222.72;5024261;28;20025;-53
2023/01/04 07:29:18;;;;;;;1.15;0.75;;;;;;;18.23;50.24;101211.81;5023803;28;20029;-57
2023/01/04 07:31:49;;;;;;;0.80;0.80;;;;;;;18.24;50.30;101200.88;5023759;28;20053;-56
2023/01/04 07:34:16;;;;;;;0.63;0.63;;;;;;;18.24;50.08;101195.50;5024383;28;20026;-49
2023/01/04 07:36:42;;;;;;;0.98;0.90;;;;;;;18.25;49.95;101190.94;5027531;28;20045;-51
2023/01/04 07:39:09;;;;;;;0.60;0.60;;;;;;;18.22;50.25;101194.81;5027517;28;20068;-52
2023/01/04 07:41:35;;;;;;;1.83;0.85;;;;;;;18.26;50.05;101189.09;5025430;28;20351;-53
2023/01/04 07:44:01;;;;;;;0.93;0.80;;;;;;;18.26;50.14;101189.94;5027689;28;20021;-55
2023/01/04 07:46:27;;;;;;;1.80;0.70;;;;;;;18.26;50.33;101181.03;5027744;28;20052;-53
2023/01/04 07:48:52;;;;;;;0.70;0.70;;;;;;;18.25;50.45;101182.88;5027672;28;20044;-53
2023/01/04 07:51:17;;;;;;;1.27;0.70;;;;;;;18.26;50.18;101187.25;5027441;28;20037;-55
2023/01/04 07:53:43;;;;;;;0.68;0.68;;;;;;;18.27;50.17;101175.50;5009682;28;20018;-49
2023/01/04 07:56:08;;;;;;;1.75;0.75;;;;;;;18.27;50.08;101185.44;5027607;28;20077;-54
2023/01/04 07:58:34;;;;;;;1.13;0.93;;;;;;;18.29;50.33;101183.41;5009803;28;20022;-56
2023/01/04 08:01:09;;;;;;;0.82;0.60;;;;;;;18.28;50.26;101187.13;5027341;28;20045;-55
2023/01/04 08:03:35;;;;;;;1.67;0.93;;;;;;;18.29;50.40;101186.94;5025470;28;20028;-53
2023/01/04 08:06:05;;;;;;;1.35;0.90;;;;;;;18.27;50.09;101186.28;5027022;28;20030;-54
2023/01/04 08:08:31;;;;;;;9.65;1.45;;;;;;;18.29;50.50;101184.25;5025126;28;20108;-52
2023/01/04 08:11:07;;;;;;;0.70;0.70;;;;;;;18.33;50.08;101184.78;5027520;28;20021;-51
2023/01/04 08:13:32;;;;;;;0.70;0.70;;;;;;;18.36;50.11;101198.78;5027532;28;20057;-53
2023/01/04 08:15:57;;;;;;;0.63;0.60;;;;;;;18.35;49.95;101189.03;5027565;28;20026;-52
2023/01/04 08:18:23;;;;;;;0.88;0.80;;;;;;;18.36;49.72;101179.94;5027433;28;20134;-55
2023/01/04 08:20:48;;;;;;;1.10;0.75;;;;;;;18.41;49.80;101192.91;5027220;28;20036;-55
2023/01/04 08:23:13;;;;;;;0.60;0.60;;;;;;;18.40;49.94;101189.38;5026700;28;20057;-55
2023/01/04 08:25:39;;;;;;;1.50;0.70;;;;;;;18.40;49.66;101184.00;5026921;28;20061;-54
2023/01/04 08:28:04;;;;;;;1.65;0.70;;;;;;;18.43;49.84;101193.59;5027038;28;20026;-52
2023/01/04 08:30:29;;;;;;;0.80;0.70;;;;;;;18.43;49.77;101188.19;5027587;28;20470;-54
2023/01/04 08:32:55;;;;;;;1.05;0.93;;;;;;;18.42;49.77;101181.13;5026694;28;20029;-55
2023/01/04 08:35:22;;;;;;;1.02;0.70;;;;;;;18.42;49.38;101181.13;5026558;28;20040;-56
2023/01/04 08:37:47;;;;;;;1.33;0.63;;;;;;;18.42;49.83;101184.66;5026532;28;20053;-53
2023/01/04 08:40:12;;;;;;;0.80;0.65;;;;;;;18.41;49.77;101180.28;5026624;28;20721;-54
2023/01/04 08:42:37;;;;;;;1.40;0.82;;;;;;;18.41;50.04;101176.75;5026499;28;20018;-55
2023/01/04 08:45:04;;;;;;;1.02;0.75;;;;;;;18.43;49.72;101183.66;5026132;28;20026;-56
2023/01/04 08:47:30;;;;;;;0.65;0.65;;;;;;;18.44;49.50;101182.69;5026416;28;20058;-53
2023/01/04 08:49:56;;;;;;;1.02;0.60;;;;;;;18.44;49.87;101174.59;5026263;28;20028;-55
2023/01/04 08:52:21;;;;;;;0.60;0.60;;;;;;;18.47;49.92;101168.88;5026386;28;20061;-54
2023/01/04 08:54:48;;;;;;;0.60;0.60;;;;;;;18.46;49.82;101166.34;5026355;28;20022;-54
2023/01/04 08:57:14;;;;;;;1.52;0.88;;;;;;;18.47;49.92;101160.81;5026433;28;20061;-54
2023/01/04 08:59:39;;;;;;;1.35;1.00;;;;;;;18.48;49.65;101167.06;5023585;28;20025;-56
2023/01/04 09:02:13;;;;;;;1.02;0.60;;;;;;;18.48;49.92;101169.75;5026227;28;20045;-56
2023/01/04 09:04:38;;;;;;;0.93;0.73;;;;;;;18.49;49.94;101171.44;5025638;28;20026;-49
2023/01/04 09:07:03;;;;;;;1.35;0.77;;;;;;;18.49;49.73;101169.56;5025892;28;20037;-51
2023/01/04 09:09:28;;;;;;;1.02;0.70;;;;;;;18.47;49.92;101159.97;5026262;28;20045;-55
2023/01/04 09:11:54;;;;;;;0.63;0.63;;;;;;;18.48;50.05;101167.06;5026042;28;20034;-55
2023/01/04 09:14:19;;;;;;;0.65;0.60;;;;;;;18.48;49.81;101167.91;5025995;28;20112;-54
2023/01/04 09:16:44;;;;;;;0.98;0.70;;;;;;;18.49;50.13;101158.81;5025859;28;20029;-51
2023/01/04 09:19:09;;;;;;;0.70;0.70;;;;;;;18.51;49.59;101172.09;5026167;28;20050;-55
2023/01/04 09:21:35;;;;;;;0.80;0.60;;;;;;;18.52;49.70;101165.72;5025441;28;20493;-55
2023/01/04 09:24:00;;;;;;;0.60;0.60;;;;;;;18.52;49.85;101184.59;5023279;28;20037;-54
2023/01/04 09:26:25;;;;;;;1.67;0.80;;;;;;;18.53;49.76;101185.41;5025523;28;20025;-54
2023/01/04 09:28:52;;;;;;;1.15;0.45;;;;;;;18.52;49.77;101176.50;5025344;28;20022;-55
2023/01/04 09:31:21;;;;;;;1.20;0.80;;;;;;;18.54;50.09;101189.78;5025903;28;20052;-56
2023/01/04 09:33:46;;;;;;;0.50;0.50;;;;;;;18.54;50.04;101189.78;5025236;28;20117;-51
2023/01/04 09:36:14;;;;;;;1.23;0.80;;;;;;;18.56;50.04;101190.47;5025303;28;20057;-55
2023/01/04 09:38:39;;;;;;;0.70;0.70;;;;;;;18.54;50.09;101187.09;5025349;28;20033;-56
2023/01/04 09:41:04;;;;;;;1.05;0.70;;;;;;;18.58;50.22;101180.41;5025643;28;20049;-55
2023/01/04 09:43:42;;;;;;;0.90;0.55;;;;;;;18.59;50.04;101184.78;5025553;28;20088;-54
2023/01/04 09:46:11;;;;;;;0.83;0.60;;;;;;;18.57;50.28;101193.03;5007402;28;20060;-56
2023/01/04 09:48:40;;;;;;;0.77;0.60;;;;;;;18.59;50.25;101184.78;5025481;28;20313;-56
2023/01/04 09:51:06;;;;;;;1.10;0.55;;;;;;;18.60;50.38;101181.91;5003078;28;20112;-54
2023/01/04 09:53:39;;;;;;;0.60;0.60;;;;;;;18.60;50.33;101190.00;5007907;28;20021;-53
2023/01/04 09:56:15;;;;;;;1.98;0.80;;;;;;;18.62;50.19;101206.00;5000154;28;20037;-53
2023/01/04 09:58:41;;;;;;;0.50;0.50;;;;;;;18.58;50.65;101199.25;5006796;28;20048;-55
2023/01/04 10:01:13;;;;;;;0.95;0.60;;;;;;;18.60;50.37;101189.16;5007703;28;20034;-50
2023/01/04 10:03:41;;;;;;;1.38;0.90;;;;;;;18.64;50.31;101203.97;4994291;28;20129;-54
2023/01/04 10:06:11;;;;;;;0.77;0.60;;;;;;;18.64;50.54;101203.97;4996257;28;20036;-49
2023/01/04 10:08:36;;;;;;;0.60;0.60;;;;;;;18.66;50.72;101202.84;5023777;28;20030;-56
2023/01/04 10:11:31;;;;;;;0.98;0.52;;;;;;;18.68;51.01;101200.81;5007275;28;20081;-51
2023/01/04 10:14:37;;;;;;;0.63;0.60;;;;;;;18.71;50.80;101205.06;5006889;28;20030;-55
2023/01/04 10:17:27;;;;;;;1.40;0.60;;;;;;;18.73;50.83;101197.66;4994011;28;20022;-52
2023/01/04 10:20:25;;;;;;;1.15;0.60;;;;;;;18.73;50.74;101192.28;5007150;28;20028;-53
2023/01/04 10:23:09;;;;;;;0.67;0.67;;;;;;;18.74;50.76;101194.00;5024633;28;20026;-54
2023/01/04 10:25:51;;;;;;;0.75;0.60;;;;;;;18.75;50.88;101192.13;4986419;28;20033;-54
2023/01/04 10:28:35;;;;;;;2.20;0.70;;;;;;;18.76;50.79;101197.34;4996150;28;20034;-51
2023/01/04 10:31:22;;;;;;;0.52;0.52;;;;;;;18.77;50.97;101193.66;5011379;28;20028;-54
2023/01/04 10:34:02;;;;;;;0.95;0.70;;;;;;;18.78;50.97;101189.97;5005641;28;20462;-52
2023/01/04 10:36:32;;;;;;;1.02;0.60;;;;;;;18.73;50.84;101170.72;5014339;28;20049;-53
2023/01/04 10:39:01;;;;;;;0.50;0.50;;;;;;;18.75;50.68;101181.38;5007725;28;20053;-53
2023/01/04 10:41:29;;;;;;;1.55;0.80;;;;;;;18.80;50.70;101189.78;5024893;28;20455;-50
2023/01/04 10:44:15;;;;;;;1.70;0.80;;;;;;;18.81;50.71;101183.41;5006996;28;20030;-57
2023/01/04 10:46:50;;;;;;;0.70;0.65;;;;;;;18.77;50.88;101168.56;5009176;28;20026;-58
2023/01/04 10:49:28;;;;;;;0.80;0.70;;;;;;;18.85;50.62;101193.69;5010117;28;20099;-60
2023/01/04 10:52:01;;;;;;;0.77;0.60;;;;;;;18.86;50.87;101189.13;4994419;28;20036;-59
2023/01/04 10:54:38;;;;;;;0.50;0.50;;;;;;;18.86;50.80;101187.31;5027082;28;20025;-58
2023/01/04 10:57:11;;;;;;;0.77;0.50;;;;;;;18.88;50.61;101170.97;5010382;28;20017;-55
2023/01/04 10:59:44;;;;;;;0.60;0.50;;;;;;;18.88;50.81;101174.50;5014300;28;20030;-54
2023/01/04 11:02:34;;;;;;;1.02;0.65;;;;;;;18.89;50.55;101170.81;5005087;28;20050;-57
2023/01/04 11:05:12;;;;;;;1.25;0.50;;;;;;;18.91;50.63;101174.19;5021064;28;20113;-54
2023/01/04 11:07:49;;;;;;;0.60;0.55;;;;;;;18.92;50.75;101175.03;5023807;28;20105;-52
2023/01/04 11:10:34;;;;;;;0.57;0.57;;;;;;;18.93;50.76;101164.09;5010898;28;20113;-55
2023/01/04 11:12:59;;;;;;;0.40;0.40;;;;;;;18.94;50.21;101157.69;5028154;28;20034;-55
2023/01/04 11:15:24;;;;;;;0.77;0.60;;;;;;;18.96;50.21;101158.38;5028838;28;20026;-53
2023/01/04 11:17:50;;;;;;;0.50;0.50;;;;;;;18.97;50.30;101148.44;5010323;28;20032;-53
2023/01/04 11:20:16;;;;;;;0.40;0.40;;;;;;;18.96;50.46;101144.91;5028442;28;20034;-48
2023/01/04 11:22:53;;;;;;;0.55;0.55;;;;;;;19.01;50.06;101149.81;5009930;28;20033;-53
2023/01/04 11:25:19;;;;;;;1.17;0.60;;;;;;;19.00;50.27;101144.59;5010621;28;20085;-52
2023/01/04 11:27:53;;;;;;;1.55;0.70;;;;;;;19.00;50.30;101148.13;5010538;28;20041;-53
2023/01/04 11:30:24;;;;;;;0.75;0.55;;;;;;;18.98;50.42;101132.09;5010659;28;20017;-53
2023/01/04 11:33:02;;;;;;;0.45;0.45;;;;;;;19.00;50.14;101136.50;5010265;28;20474;-54
2023/01/04 11:35:48;;;;;;;0.50;0.50;;;;;;;18.98;50.52;101133.97;5010408;28;20068;-54
2023/01/04 11:38:21;;;;;;;1.38;0.77;;;;;;;18.98;50.21;101139.34;5027838;28;20040;-52
2023/01/04 11:40:56;;;;;;;0.85;0.73;;;;;;;18.94;50.38;101116.44;5027956;28;20022;-56
2023/01/04 11:43:23;;;;;;;2.40;0.60;;;;;;;18.94;50.49;101113.72;5027518;28;20025;-53
2023/01/04 11:46:06;;;;;;;1.17;0.70;;;;;;;18.98;50.41;101113.25;5028036;28;20800;-53
2023/01/04 11:48:33;;;;;;;1.33;0.70;;;;;;;18.98;50.69;101125.88;5026243;28;20029;-53
2023/01/04 11:50:58;;;;;;;0.57;0.57;;;;;;;18.99;50.63;101135.66;5027651;28;20022;-53
2023/01/04 11:53:35;;;;;;;0.55;0.55;;;;;;;18.99;50.67;101119.50;5027276;28;20036;-52
2023/01/04 11:56:12;;;;;;;1.05;0.60;;;;;;;18.99;50.46;101108.72;5009033;28;20014;-50
2023/01/04 11:58:38;;;;;;;0.60;0.60;;;;;;;18.99;50.48;101103.34;5027057;28;20044;-53
2023/01/04 12:01:04;;;;;;;0.50;0.50;;;;;;;18.98;50.51;101089.00;5027356;28;20031;-56
2023/01/04 12:03:33;;;;;;;1.10;0.57;;;;;;;18.98;50.78;101096.22;5027069;28;20029;-54
2023/01/04 12:05:59;;;;;;;0.60;0.60;;;;;;;18.98;50.47;101097.06;5027074;28;20074;-54
2023/01/04 12:08:28;;;;;;;1.05;0.60;;;;;;;18.97;50.93;101089.16;5026694;28;20337;-52
2023/01/04 12:10:54;;;;;;;0.90;0.57;;;;;;;18.97;50.87;101106.16;5009604;28;20032;-55
2023/01/04 12:13:19;;;;;;;0.95;0.70;;;;;;;18.97;50.61;101097.25;5027203;28;20030;-54